createdAt,value
2022-10-22T00:02:27.810Z,17.65
2022-10-22T00:04:57.132Z,17.90
2022-10-22T00:07:24.473Z,17.38
2022-10-22T00:09:51.270Z,17.90
2022-10-22T00:12:18.840Z,17.77
2022-10-22T00:14:46.531Z,17.70
2022-10-22T00:17:13.912Z,18.15
2022-10-22T00:19:40.733Z,18.30
2022-10-22T00:22:08.637Z,16.52
2022-10-22T00:24:36.185Z,17.20
2022-10-22T00:27:03.184Z,18.50
2022-10-22T00:29:29.788Z,17.88
2022-10-22T00:31:57.004Z,17.65
2022-10-22T00:34:23.881Z,16.90
2022-10-22T00:36:50.746Z,16.88
2022-10-22T00:39:19.596Z,17.13
2022-10-22T00:41:50.051Z,17.48
2022-10-22T00:44:54.375Z,17.58
2022-10-22T00:47:24.649Z,17.00
2022-10-22T00:49:53.777Z,17.60
2022-10-22T00:52:21.330Z,17.17
2022-10-22T00:54:48.556Z,17.02
2022-10-22T00:57:16.739Z,17.58
2022-10-22T00:59:43.475Z,17.50
2022-10-22T01:02:10.079Z,18.92
2022-10-22T01:04:36.700Z,18.08
2022-10-22T01:07:03.627Z,17.08
2022-10-22T01:09:33.292Z,19.13
2022-10-22T01:12:23.591Z,19.80
2022-10-22T01:15:14.415Z,18.35
2022-10-22T01:17:47.049Z,17.83
2022-10-22T01:20:37.707Z,17.95
2022-10-22T01:23:16.354Z,19.25
2022-10-22T01:26:12.434Z,20.42
2022-10-22T01:29:19.369Z,19.35
2022-10-22T01:31:54.459Z,19.65
2022-10-22T01:34:25.821Z,19.65
2022-10-22T01:36:54.799Z,20.52
2022-10-22T01:39:23.399Z,19.40
2022-10-22T01:41:53.319Z,20.00
2022-10-22T01:46:58.863Z,20.67
2022-10-22T01:49:38.072Z,20.63
2022-10-22T01:52:17.912Z,20.58
2022-10-22T01:54:54.948Z,20.90
2022-10-22T01:58:03.624Z,20.13
2022-10-22T02:00:30.629Z,22.23
2022-10-22T02:03:10.727Z,20.88
2022-10-22T02:05:48.345Z,21.33
2022-10-22T02:08:27.183Z,21.27
2022-10-22T02:10:54.983Z,21.48
2022-10-22T02:13:27.640Z,21.42
2022-10-22T02:15:57.021Z,21.85
2022-10-22T02:18:28.763Z,22.60
2022-10-22T02:20:56.076Z,22.38
2022-10-22T02:23:23.384Z,23.02
2022-10-22T02:26:21.620Z,21.27
2022-10-22T02:28:51.096Z,22.13
2022-10-22T02:31:28.422Z,23.42
2022-10-22T02:33:58.274Z,20.80
2022-10-22T02:36:28.982Z,21.83
2022-10-22T02:38:56.264Z,22.35
2022-10-22T02:41:24.390Z,22.20
2022-10-22T02:43:55.270Z,22.40
2022-10-22T02:46:22.710Z,22.70
2022-10-22T02:48:49.430Z,22.67
2022-10-22T02:51:16.051Z,21.90
2022-10-22T02:53:42.762Z,22.92
2022-10-22T02:56:09.907Z,21.40
2022-10-22T02:58:36.552Z,21.45
2022-10-22T03:01:03.369Z,21.48
2022-10-22T03:03:30.058Z,22.05
2022-10-22T03:05:56.714Z,20.50
2022-10-22T03:08:23.311Z,22.33
2022-10-22T03:10:49.971Z,22.58
2022-10-22T03:13:16.687Z,20.65
2022-10-22T03:15:43.282Z,21.08
2022-10-22T03:18:09.985Z,21.02
2022-10-22T03:20:38.930Z,21.90
2022-10-22T03:23:06.842Z,19.87
2022-10-22T03:25:34.677Z,20.25
2022-10-22T03:28:09.259Z,20.85
2022-10-22T03:30:36.670Z,19.25
2022-10-22T03:33:03.367Z,20.17
2022-10-22T03:35:31.378Z,19.77
2022-10-22T03:38:00.975Z,19.77
2022-10-22T03:40:27.657Z,20.02
2022-10-22T03:42:54.348Z,20.08
2022-10-22T03:45:23.892Z,19.60
2022-10-22T03:47:50.508Z,20.27
2022-10-22T03:50:17.365Z,20.67
2022-10-22T03:52:44.043Z,20.38
2022-10-22T03:55:10.741Z,19.33
2022-10-22T03:57:37.659Z,20.98
2022-10-22T04:00:06.333Z,19.77
2022-10-22T04:02:32.988Z,19.15
2022-10-22T04:04:59.601Z,20.70
2022-10-22T04:07:26.286Z,20.83
2022-10-22T04:09:52.892Z,21.05
2022-10-22T04:12:19.607Z,20.65
2022-10-22T04:14:46.253Z,18.88
2022-10-22T04:17:12.865Z,19.40
2022-10-22T04:19:39.649Z,19.20
2022-10-22T04:22:06.255Z,23.38
2022-10-22T04:24:32.960Z,76.25
2022-10-22T04:26:59.539Z,55.78
2022-10-22T04:29:26.619Z,33.97
2022-10-22T04:31:53.364Z,25.83
2022-10-22T04:34:21.232Z,27.92
2022-10-22T04:36:47.999Z,29.88
2022-10-22T04:39:15.380Z,25.88
2022-10-22T04:41:42.039Z,21.10
2022-10-22T04:44:14.058Z,22.48
2022-10-22T04:46:43.863Z,22.40
2022-10-22T04:49:10.524Z,23.27
2022-10-22T04:51:37.167Z,26.23
2022-10-22T04:54:03.922Z,24.27
2022-10-22T04:56:31.667Z,22.10
2022-10-22T04:59:09.173Z,22.25
2022-10-22T05:01:42.942Z,22.67
2022-10-22T05:04:16.111Z,21.13
2022-10-22T05:06:42.863Z,22.70
2022-10-22T05:09:15.576Z,21.95
2022-10-22T05:11:46.210Z,23.23
2022-10-22T05:14:13.289Z,22.30
2022-10-22T05:16:40.086Z,22.02
2022-10-22T05:19:08.034Z,21.38
2022-10-22T05:21:35.667Z,22.52
2022-10-22T05:24:02.496Z,21.13
2022-10-22T05:26:29.987Z,22.50
2022-10-22T05:28:56.759Z,33.30
2022-10-22T05:31:23.355Z,36.22
2022-10-22T05:33:50.123Z,29.42
2022-10-22T05:36:21.261Z,27.63
2022-10-22T05:38:50.780Z,26.10
2022-10-22T05:41:20.666Z,24.42
2022-10-22T05:46:21.965Z,20.30
2022-10-22T05:49:00.857Z,22.17
2022-10-22T05:51:29.687Z,21.13
2022-10-22T05:54:08.131Z,22.08
2022-10-22T05:56:35.731Z,22.33
2022-10-22T06:01:32.632Z,21.10
2022-10-22T06:04:01.442Z,21.33
2022-10-22T06:06:35.885Z,21.50
2022-10-22T06:09:07.284Z,20.95
2022-10-22T06:11:35.207Z,22.17
2022-10-22T06:14:02.565Z,21.48
2022-10-22T06:16:30.600Z,20.25
2022-10-22T06:18:59.350Z,20.38
2022-10-22T06:21:25.999Z,20.35
2022-10-22T06:23:56.895Z,19.55
2022-10-22T06:26:23.639Z,19.35
2022-10-22T06:28:50.715Z,19.45
2022-10-22T06:31:17.532Z,19.83
2022-10-22T06:33:44.237Z,19.80
2022-10-22T06:36:20.039Z,18.80
2022-10-22T06:38:46.736Z,20.13
2022-10-22T06:41:16.346Z,20.75
2022-10-22T06:43:45.393Z,21.08
2022-10-22T06:46:14.906Z,21.23
2022-10-22T06:48:49.548Z,21.75
2022-10-22T06:51:16.127Z,21.13
2022-10-22T06:53:42.799Z,20.02
2022-10-22T06:56:14.384Z,20.70
2022-10-22T06:58:41.073Z,19.80
2022-10-22T07:01:16.533Z,21.88
2022-10-22T07:03:46.442Z,20.88
2022-10-22T07:08:41.520Z,20.25
2022-10-22T07:11:09.567Z,20.05
2022-10-22T07:13:36.723Z,21.60
2022-10-22T07:16:04.165Z,19.58
2022-10-22T07:18:32.841Z,20.80
2022-10-22T07:20:59.725Z,19.63
2022-10-22T07:23:29.942Z,18.92
2022-10-22T07:28:29.818Z,18.48
2022-10-22T07:30:56.405Z,19.95
2022-10-22T07:33:22.983Z,19.15
2022-10-22T07:35:49.642Z,20.52
2022-10-22T07:38:19.652Z,19.40
2022-10-22T07:40:46.266Z,21.02
2022-10-22T07:43:12.872Z,20.88
2022-10-22T07:45:41.018Z,20.60
2022-10-22T07:48:07.672Z,19.75
2022-10-22T07:50:34.439Z,18.23
2022-10-22T07:53:01.278Z,17.17
2022-10-22T07:55:28.002Z,17.63
2022-10-22T07:57:54.651Z,17.10
2022-10-22T08:00:25.199Z,18.23
2022-10-22T08:02:52.636Z,17.88
2022-10-22T08:05:19.483Z,18.80
2022-10-22T08:07:46.432Z,18.95
2022-10-22T08:10:13.660Z,16.83
2022-10-22T08:12:42.011Z,15.70
2022-10-22T08:15:09.880Z,13.88
2022-10-22T08:17:37.554Z,14.68
2022-10-22T08:20:04.794Z,13.95
2022-10-22T08:22:31.498Z,13.20
2022-10-22T08:24:59.172Z,13.43
2022-10-22T08:27:26.193Z,14.35
2022-10-22T08:29:52.816Z,14.07
2022-10-22T08:32:19.476Z,15.60
2022-10-22T08:34:46.138Z,15.15
2022-10-22T08:37:14.588Z,16.83
2022-10-22T08:39:41.516Z,14.90
2022-10-22T08:42:39.522Z,15.07
2022-10-22T08:45:24.447Z,16.85
2022-10-22T08:48:03.156Z,17.50
2022-10-22T08:50:50.942Z,14.73
2022-10-22T08:53:21.047Z,15.05
2022-10-22T08:55:49.974Z,14.73
2022-10-22T08:58:20.348Z,13.90
2022-10-22T09:00:58.698Z,13.90
2022-10-22T09:03:37.275Z,14.82
2022-10-22T09:06:31.816Z,13.82
2022-10-22T09:09:04.749Z,11.93
2022-10-22T09:11:33.350Z,12.38
2022-10-22T09:14:02.446Z,13.15
2022-10-22T09:16:54.001Z,12.75
2022-10-22T09:19:51.700Z,11.80
2022-10-22T09:22:56.474Z,11.50
2022-10-22T09:25:27.488Z,10.90
2022-10-22T09:28:01.731Z,13.38
2022-10-22T09:30:38.071Z,14.60
2022-10-22T09:33:07.977Z,15.25
2022-10-22T09:35:43.684Z,14.55
2022-10-22T09:38:15.792Z,13.27
2022-10-22T09:40:49.814Z,14.20
2022-10-22T09:43:19.549Z,13.02
2022-10-22T09:48:20.315Z,10.93
2022-10-22T09:50:57.180Z,10.30
2022-10-22T09:53:29.507Z,11.32
2022-10-22T09:56:00.370Z,11.25
2022-10-22T09:58:29.082Z,11.23
2022-10-22T10:01:00.805Z,9.63
2022-10-22T10:03:31.765Z,11.02
2022-10-22T10:06:04.771Z,10.98
2022-10-22T10:08:33.322Z,9.60
2022-10-22T10:11:06.103Z,10.45
2022-10-22T10:13:55.382Z,9.00
2022-10-22T10:16:23.968Z,9.07
2022-10-22T10:19:13.961Z,9.10
2022-10-22T10:21:57.346Z,9.23
2022-10-22T10:24:26.969Z,8.50
2022-10-22T10:29:49.474Z,8.90
2022-10-22T10:32:37.229Z,8.35
2022-10-22T10:35:15.418Z,7.22
2022-10-22T10:37:51.219Z,8.95
2022-10-22T10:40:26.387Z,7.25
2022-10-22T10:42:59.815Z,6.75
2022-10-22T10:45:37.900Z,7.57
2022-10-22T10:48:16.972Z,7.47
2022-10-22T10:51:09.212Z,7.05
2022-10-22T10:53:48.299Z,6.90
2022-10-22T10:56:25.247Z,5.97
2022-10-22T10:59:03.331Z,5.63
2022-10-22T11:01:32.210Z,6.40
2022-10-22T11:04:36.455Z,6.50
2022-10-22T11:07:30.036Z,6.07
2022-10-22T11:10:15.288Z,6.63
2022-10-22T11:12:45.814Z,6.75
2022-10-22T11:15:37.012Z,6.63
2022-10-22T11:18:10.486Z,6.45
2022-10-22T11:20:48.890Z,7.38
2022-10-22T11:23:37.084Z,7.25
2022-10-22T11:26:11.511Z,7.28
2022-10-22T11:28:44.019Z,7.75
2022-10-22T11:31:15.926Z,8.35
2022-10-22T11:34:04.985Z,7.35
2022-10-22T11:36:43.644Z,8.02
2022-10-22T11:39:43.216Z,8.38
2022-10-22T11:42:30.201Z,8.93
2022-10-22T11:45:28.638Z,8.35
2022-10-22T11:48:17.642Z,8.40
2022-10-22T11:50:53.026Z,8.60
2022-10-22T11:53:32.367Z,8.13
2022-10-22T11:56:23.181Z,7.60
2022-10-22T11:58:53.739Z,7.10
2022-10-22T12:01:26.868Z,8.48
2022-10-22T12:04:13.553Z,7.00
2022-10-22T12:06:58.360Z,7.55
2022-10-22T12:09:30.155Z,7.28
2022-10-22T12:12:04.161Z,7.63
2022-10-22T12:14:41.727Z,7.55
2022-10-22T12:17:14.397Z,7.97
2022-10-22T12:19:47.110Z,8.73
2022-10-22T12:22:13.765Z,8.27
2022-10-22T12:24:47.222Z,8.00
2022-10-22T12:27:25.558Z,8.15
2022-10-22T12:29:58.087Z,8.63
2022-10-22T12:32:36.842Z,8.32
2022-10-22T12:35:17.175Z,8.65
2022-10-22T12:37:44.100Z,8.63
2022-10-22T12:40:19.226Z,7.60
2022-10-22T12:43:05.625Z,7.72
2022-10-22T12:45:35.190Z,7.72
2022-10-22T12:48:08.220Z,8.85
2022-10-22T12:50:47.327Z,8.10
2022-10-22T12:53:39.336Z,8.57
2022-10-22T12:56:16.506Z,8.68
2022-10-22T12:58:52.944Z,8.10
2022-10-22T13:01:20.150Z,8.50
2022-10-22T13:04:03.599Z,7.97
2022-10-22T13:06:30.493Z,6.88
2022-10-22T13:09:00.369Z,7.70
2022-10-22T13:11:53.717Z,6.18
2022-10-22T13:14:26.057Z,4.90
2022-10-22T13:17:17.116Z,4.82
2022-10-22T13:19:48.460Z,4.88
2022-10-22T13:22:27.350Z,5.15
2022-10-22T13:27:28.519Z,5.50
2022-10-22T13:29:57.351Z,5.68
2022-10-22T13:32:31.101Z,5.80
2022-10-22T13:35:03.021Z,6.82
2022-10-22T13:37:32.573Z,6.93
2022-10-22T13:42:29.400Z,5.57
2022-10-22T13:44:56.001Z,5.55
2022-10-22T13:47:28.274Z,4.82
2022-10-22T13:49:58.623Z,5.88
2022-10-22T13:52:42.512Z,4.50
2022-10-22T13:55:26.970Z,5.00
2022-10-22T13:57:57.375Z,5.82
2022-10-22T14:00:24.504Z,5.38
2022-10-22T14:02:55.735Z,5.28
2022-10-22T14:05:22.880Z,5.30
2022-10-22T14:07:49.578Z,4.88
2022-10-22T14:10:21.923Z,5.00
2022-10-22T14:12:53.262Z,5.38
2022-10-22T14:15:27.290Z,5.97
2022-10-22T14:17:57.507Z,8.25
2022-10-22T14:20:29.739Z,11.35
2022-10-22T14:23:00.355Z,11.90
2022-10-22T14:25:29.243Z,9.98
2022-10-22T14:27:56.633Z,7.72
2022-10-22T14:30:25.246Z,7.80
2022-10-22T14:32:52.139Z,6.85
2022-10-22T14:35:21.715Z,6.95
2022-10-22T14:40:19.254Z,6.43
2022-10-22T14:42:48.711Z,6.15
2022-10-22T14:45:33.440Z,5.38
2022-10-22T14:48:03.201Z,6.13
2022-10-22T14:50:29.805Z,5.45
2022-10-22T14:52:58.866Z,5.50
2022-10-22T14:55:27.144Z,6.22
2022-10-22T14:57:54.153Z,6.05
2022-10-22T15:00:21.480Z,6.10
2022-10-22T15:02:48.899Z,5.72
2022-10-22T15:05:17.411Z,5.72
2022-10-22T15:07:45.206Z,5.80
2022-10-22T15:10:11.918Z,5.65
2022-10-22T15:12:38.562Z,6.13
2022-10-22T15:15:06.127Z,6.07
2022-10-22T15:17:32.805Z,5.60
2022-10-22T15:20:04.311Z,5.85
2022-10-22T15:22:35.148Z,5.10
2022-10-22T15:25:07.762Z,4.35
2022-10-22T15:27:34.766Z,5.47
2022-10-22T15:32:34.070Z,4.90
2022-10-22T15:35:01.732Z,5.93
2022-10-22T15:37:28.416Z,4.47
2022-10-22T15:39:55.009Z,4.20
2022-10-22T15:42:23.305Z,4.32
2022-10-22T15:44:56.785Z,4.43
2022-10-22T15:47:25.290Z,3.42
2022-10-22T15:49:51.878Z,3.30
2022-10-22T15:52:18.530Z,3.67
2022-10-22T15:54:45.127Z,3.55
2022-10-22T15:57:11.712Z,3.75
2022-10-22T15:59:38.407Z,2.88
2022-10-22T16:02:05.380Z,2.90
2022-10-22T16:04:31.971Z,3.45
2022-10-22T16:06:58.849Z,3.45
2022-10-22T16:09:27.331Z,3.25
2022-10-22T16:11:55.536Z,3.22
2022-10-22T16:14:23.559Z,3.35
2022-10-22T16:16:55.628Z,3.55
2022-10-22T16:19:23.976Z,3.40
2022-10-22T16:21:52.259Z,3.75
2022-10-22T16:24:19.007Z,3.47
2022-10-22T16:26:47.694Z,3.58
2022-10-22T16:29:14.674Z,3.00
2022-10-22T16:31:43.611Z,4.05
2022-10-22T16:34:11.872Z,4.10
2022-10-22T16:36:38.916Z,5.10
2022-10-22T16:39:08.851Z,4.40
2022-10-22T16:41:36.360Z,3.58
2022-10-22T16:44:05.967Z,3.78
2022-10-22T16:46:33.479Z,3.42
2022-10-22T16:49:00.286Z,4.00
2022-10-22T16:51:28.414Z,3.85
2022-10-22T16:53:59.814Z,3.70
2022-10-22T16:56:26.960Z,3.90
2022-10-22T16:58:56.728Z,3.97
2022-10-22T17:03:56.292Z,4.13
2022-10-22T17:06:24.487Z,4.05
2022-10-22T17:08:51.180Z,3.80
2022-10-22T17:11:21.616Z,3.97
2022-10-22T17:13:51.256Z,4.40
2022-10-22T17:16:23.844Z,4.22
2022-10-22T17:18:50.979Z,4.00
2022-10-22T17:21:18.869Z,4.97
2022-10-22T17:23:46.762Z,4.78
2022-10-22T17:26:17.478Z,4.57
2022-10-22T17:28:44.523Z,5.05
2022-10-22T17:31:27.919Z,5.25
2022-10-22T17:33:56.728Z,4.30
2022-10-22T17:36:27.533Z,5.05
2022-10-22T17:39:10.724Z,5.30
2022-10-22T17:41:37.816Z,6.05
2022-10-22T17:44:09.395Z,4.78
2022-10-22T17:46:36.379Z,5.63
2022-10-22T17:49:06.878Z,4.95
2022-10-22T17:51:34.373Z,5.90
2022-10-22T17:54:03.422Z,7.03
2022-10-22T17:56:35.995Z,6.97
2022-10-22T17:59:02.752Z,7.32
2022-10-22T18:01:34.407Z,8.00
2022-10-22T18:04:04.219Z,8.70
2022-10-22T18:06:31.569Z,10.18
2022-10-22T18:08:58.415Z,9.65
2022-10-22T18:11:27.722Z,9.93
2022-10-22T18:13:57.930Z,10.70
2022-10-22T18:16:25.995Z,9.90
2022-10-22T18:18:54.961Z,9.68
2022-10-22T18:21:24.466Z,10.87
2022-10-22T18:23:51.928Z,10.85
2022-10-22T18:26:21.451Z,11.10
2022-10-22T18:28:51.010Z,11.35
2022-10-22T18:31:22.718Z,11.45
2022-10-22T18:33:50.463Z,11.82
2022-10-22T18:36:20.628Z,12.75
2022-10-22T18:38:56.090Z,13.05
2022-10-22T18:41:22.731Z,12.65
2022-10-22T18:43:57.054Z,13.13
2022-10-22T18:46:24.278Z,11.95
2022-10-22T18:48:58.026Z,14.45
2022-10-22T18:51:30.686Z,12.02
2022-10-22T18:54:05.145Z,12.48
2022-10-22T18:56:42.327Z,11.80
2022-10-22T18:59:17.207Z,10.40
2022-10-22T19:01:43.844Z,10.57
2022-10-22T19:04:11.811Z,10.80
2022-10-22T19:06:40.692Z,10.82
2022-10-22T19:09:10.050Z,11.75
2022-10-22T19:11:36.870Z,12.23
2022-10-22T19:14:03.617Z,12.65
2022-10-22T19:16:30.499Z,12.40
2022-10-22T19:19:05.757Z,12.85
2022-10-22T19:21:33.168Z,12.43
2022-10-22T19:24:01.320Z,12.93
2022-10-22T19:26:29.877Z,13.45
2022-10-22T19:28:58.363Z,23.90
2022-10-22T19:31:30.211Z,31.42
2022-10-22T19:33:57.764Z,15.20
2022-10-22T19:36:26.387Z,15.13
2022-10-22T19:38:53.809Z,12.95
2022-10-22T19:41:22.211Z,13.13
2022-10-22T19:43:51.307Z,11.93
2022-10-22T19:46:18.991Z,12.73
2022-10-22T19:51:24.094Z,12.43
2022-10-22T19:53:51.155Z,13.77
2022-10-22T19:56:20.419Z,13.45
2022-10-22T19:58:47.220Z,16.10
2022-10-22T20:01:17.094Z,19.85
2022-10-22T20:03:45.217Z,19.83
2022-10-22T20:06:14.615Z,23.50
2022-10-22T20:08:41.538Z,25.63
2022-10-22T20:11:11.192Z,20.73
2022-10-22T20:13:40.711Z,21.60
2022-10-22T20:16:07.376Z,26.10
2022-10-22T20:18:34.345Z,27.88
2022-10-22T20:21:06.178Z,26.60
2022-10-22T20:23:33.253Z,29.13
2022-10-22T20:25:59.951Z,27.80
2022-10-22T20:28:26.738Z,27.27
2022-10-22T20:30:53.444Z,27.08
2022-10-22T20:33:20.026Z,19.70
2022-10-22T20:35:47.009Z,16.17
2022-10-22T20:38:15.079Z,15.18
2022-10-22T20:40:41.775Z,16.60
2022-10-22T20:43:12.372Z,16.55
2022-10-22T20:45:39.087Z,16.23
2022-10-22T20:48:06.064Z,17.02
2022-10-22T20:50:33.279Z,16.42
2022-10-22T20:52:59.903Z,15.30
2022-10-22T20:55:27.492Z,19.08
2022-10-22T20:57:54.407Z,19.27
2022-10-22T21:00:21.188Z,14.95
2022-10-22T21:02:47.865Z,13.68
2022-10-22T21:05:14.613Z,15.07
2022-10-22T21:07:41.358Z,14.02
2022-10-22T21:10:08.291Z,13.60
2022-10-22T21:12:35.067Z,13.38
2022-10-22T21:15:01.822Z,14.63
2022-10-22T21:17:28.483Z,13.63
2022-10-22T21:19:55.073Z,14.32
2022-10-22T21:22:21.674Z,15.95
2022-10-22T21:24:48.238Z,17.25
2022-10-22T21:27:15.089Z,16.20
2022-10-22T21:29:41.703Z,15.80
2022-10-22T21:32:11.416Z,14.43
2022-10-22T21:34:39.101Z,12.48
2022-10-22T21:37:05.877Z,11.55
2022-10-22T21:39:32.548Z,11.65
2022-10-22T21:41:59.329Z,11.57
2022-10-22T21:44:25.916Z,11.80
2022-10-22T21:46:52.560Z,11.85
2022-10-22T21:49:19.442Z,11.73
2022-10-22T21:51:46.066Z,10.77
2022-10-22T21:54:12.821Z,9.90
2022-10-22T21:56:39.916Z,9.02
2022-10-22T21:59:07.214Z,9.63
2022-10-22T22:01:34.461Z,10.13
2022-10-22T22:04:02.102Z,9.60
2022-10-22T22:06:33.144Z,9.27
2022-10-22T22:09:01.600Z,10.10
2022-10-22T22:11:29.928Z,9.02
2022-10-22T22:13:58.258Z,9.57
2022-10-22T22:16:28.586Z,9.38
2022-10-22T22:18:57.077Z,9.95
2022-10-22T22:21:23.826Z,7.93
2022-10-22T22:23:51.355Z,8.70
2022-10-22T22:26:25.414Z,9.15
2022-10-22T22:28:55.816Z,9.45
2022-10-22T22:31:33.711Z,8.90
2022-10-22T22:34:02.129Z,8.85
2022-10-22T22:36:32.402Z,8.45
2022-10-22T22:38:59.061Z,7.35
2022-10-22T22:41:25.639Z,7.63
2022-10-22T22:43:52.376Z,8.13
2022-10-22T22:46:19.129Z,7.75
2022-10-22T22:48:49.366Z,8.10
2022-10-22T22:51:16.170Z,7.85
2022-10-22T22:53:42.784Z,7.75
2022-10-22T22:56:34.268Z,8.05
2022-10-22T22:59:01.458Z,8.75
2022-10-22T23:01:33.707Z,8.57
2022-10-22T23:04:06.113Z,7.93
2022-10-22T23:06:36.171Z,8.45
2022-10-22T23:09:08.349Z,7.88
2022-10-22T23:11:35.118Z,8.18
2022-10-22T23:14:04.392Z,8.02
2022-10-22T23:16:33.847Z,7.80
2022-10-22T23:19:01.326Z,7.70
2022-10-22T23:21:36.663Z,7.72
2022-10-22T23:24:07.275Z,8.07
2022-10-22T23:26:40.640Z,8.02
2022-10-22T23:29:11.292Z,8.40
2022-10-22T23:31:38.498Z,7.13
2022-10-22T23:34:06.270Z,7.45
2022-10-22T23:36:37.378Z,7.25
2022-10-22T23:39:09.513Z,7.68
2022-10-22T23:41:36.723Z,7.90
2022-10-22T23:44:04.349Z,7.13
2022-10-22T23:46:31.087Z,8.05
2022-10-22T23:48:57.719Z,7.55
2022-10-22T23:51:24.484Z,6.57
2022-10-22T23:53:59.758Z,7.20
2022-10-22T23:56:27.517Z,7.70
2022-10-22T23:58:54.607Z,7.65
